Time;durP1;ratioP1;P1;durP2;ratioP2;P2;SDS_P1;SDS_P2;PMS_P1;PMS_P2;Temp;Humidity;BMP_temperature;BMP_pressure;BME280_temperature;BME280_humidity;BME280_pressure;Samples;Min_cycle;Max_cycle;Signal;HPM_P1;HPM_P2
2023/06/10 00:02:10;;;;;;;1999.90;999.90;;;22.40;91.60;;;;;;5052587;28;20129;-74
2023/06/10 00:04:38;;;;;;;1999.90;999.90;;;22.70;91.40;;;;;;5061419;28;20067;-74
2023/06/10 00:07:10;;;;;;;1999.90;999.90;;;22.90;90.40;;;;;;5052867;28;20046;-74
2023/06/10 00:09:38;;;;;;;1999.90;999.90;;;23.10;90.10;;;;;;5064129;28;20088;-74
2023/06/10 00:12:12;;;;;;;1999.90;999.90;;;23.40;88.80;;;;;;5052753;28;20032;-73
2023/06/10 00:14:43;;;;;;;1999.90;999.90;;;23.70;89.00;;;;;;5065665;28;20251;-73
2023/06/10 00:17:11;;;;;;;1999.90;999.90;;;24.00;85.90;;;;;;5048269;28;20047;-73
2023/06/10 00:19:41;;;;;;;1999.90;999.90;;;24.00;86.80;;;;;;5052505;28;20031;-73
2023/06/10 00:22:10;;;;;;;1999.90;999.90;;;24.00;88.00;;;;;;5045436;28;20025;-73
2023/06/10 00:24:37;;;;;;;1999.90;999.90;;;24.40;87.20;;;;;;5057592;28;20028;-73
2023/06/10 00:27:06;;;;;;;1999.90;999.90;;;24.70;86.90;;;;;;5050269;28;20045;-73
2023/06/10 00:29:34;;;;;;;1999.90;999.90;;;25.00;84.50;;;;;;5060756;28;20028;-73
2023/06/10 00:32:01;;;;;;;1999.90;999.90;;;25.30;82.60;;;;;;5052019;28;20037;-73
2023/06/10 00:34:28;;;;;;;1999.90;999.90;;;25.40;82.30;;;;;;5059569;28;20025;-72
2023/06/10 00:36:56;;;;;;;1999.90;999.90;;;25.20;82.60;;;;;;5055270;28;20498;-73
2023/06/10 00:39:23;;;;;;;1999.90;999.90;;;25.10;83.00;;;;;;5062338;28;20111;-73
2023/06/10 00:41:50;;;;;;;1999.90;999.90;;;25.20;83.20;;;;;;5059456;28;20032;-73
2023/06/10 00:44:18;;;;;;;1999.90;999.90;;;25.60;82.80;;;;;;5061724;28;20039;-73
2023/06/10 00:46:45;;;;;;;1999.90;999.90;;;26.10;81.60;;;;;;5054937;28;20352;-73
2023/06/10 00:49:13;;;;;;;1999.90;999.90;;;26.40;80.70;;;;;;5056865;28;20047;-72
2023/06/10 00:51:40;;;;;;;1999.90;999.90;;;26.70;80.40;;;;;;5057189;28;20048;-73
2023/06/10 00:54:08;;;;;;;1999.90;999.90;;;26.80;79.40;;;;;;5052524;28;20024;-70
2023/06/10 00:56:36;;;;;;;1999.90;999.90;;;27.10;78.60;;;;;;5045032;28;20032;-72
2023/06/10 00:59:04;;;;;;;1999.90;999.90;;;27.30;77.70;;;;;;5060047;28;20107;-72
2023/06/10 01:01:32;;;;;;;1999.90;999.90;;;27.40;77.70;;;;;;5055414;28;20055;-73
2023/06/10 01:03:59;;;;;;;1999.90;999.90;;;27.90;75.10;;;;;;5056049;28;20036;-72
2023/06/10 01:06:47;;;;;;;1999.90;999.90;;;27.70;75.20;;;;;;5051988;28;20042;-73
2023/06/10 01:09:22;;;;;;;1999.90;999.90;;;27.50;76.20;;;;;;5055566;28;20036;-71
2023/06/10 01:11:58;;;;;;;1999.90;999.90;;;27.80;75.70;;;;;;5048703;28;20435;-74
2023/06/10 01:14:27;;;;;;;1999.90;999.90;;;27.90;74.10;;;;;;5056259;28;20395;-73
2023/06/10 01:16:54;;;;;;;1999.90;999.90;;;28.10;73.80;;;;;;5056370;28;20025;-73
2023/06/10 01:19:24;;;;;;;1999.90;999.90;;;28.40;74.00;;;;;;5056932;28;20025;-73
2023/06/10 01:21:54;;;;;;;1999.90;999.90;;;28.50;73.90;;;;;;5052933;28;20503;-73
2023/06/10 01:24:22;;;;;;;1999.90;999.90;;;28.70;73.40;;;;;;5059752;28;20037;-71
2023/06/10 01:26:51;;;;;;;1999.90;999.90;;;28.90;71.60;;;;;;5055157;28;20542;-71
2023/06/10 01:29:34;;;;;;;1999.90;999.90;;;28.90;71.90;;;;;;5058613;28;20468;-72
2023/06/10 01:32:21;;;;;;;1999.90;999.90;;;29.00;72.10;;;;;;5058437;28;20375;-73
2023/06/10 01:34:49;;;;;;;1999.90;999.90;;;29.00;70.30;;;;;;5056547;28;20043;-71
2023/06/10 01:37:20;;;;;;;1999.90;999.90;;;28.80;71.00;;;;;;5046607;28;20029;-72
2023/06/10 01:39:49;;;;;;;1999.90;999.90;;;28.50;71.80;;;;;;5052892;28;20032;-72
2023/06/10 01:42:17;;;;;;;1999.90;999.90;;;28.60;72.10;;;;;;5051968;28;20079;-71
2023/06/10 01:44:45;;;;;;;1999.90;999.90;;;28.80;71.80;;;;;;5062506;28;20597;-72
2023/06/10 01:47:12;;;;;;;1999.90;999.90;;;29.00;72.10;;;;;;5055628;28;20034;-74
2023/06/10 01:49:39;;;;;;;1999.90;999.90;;;29.20;72.50;;;;;;5058137;28;20024;-71
2023/06/10 01:52:07;;;;;;;1999.90;999.90;;;29.20;71.70;;;;;;5051232;28;20055;-73
2023/06/10 01:54:37;;;;;;;1999.90;999.90;;;28.90;72.50;;;;;;5045999;28;20100;-72
2023/06/10 01:57:06;;;;;;;1999.90;999.90;;;28.70;72.90;;;;;;5050695;28;20082;-72
2023/06/10 01:59:33;;;;;;;1999.90;999.90;;;28.80;72.40;;;;;;5055123;28;20499;-73
2023/06/10 02:02:00;;;;;;;1999.90;999.90;;;28.70;72.70;;;;;;5052633;28;20053;-72
2023/06/10 02:04:27;;;;;;;1999.90;999.90;;;29.00;72.30;;;;;;5051283;28;20051;-73
2023/06/10 02:06:55;;;;;;;1999.90;999.90;;;29.20;72.50;;;;;;5055182;28;20395;-73
2023/06/10 02:09:23;;;;;;;1999.90;999.90;;;29.20;71.80;;;;;;5049652;28;20052;-71
2023/06/10 02:11:50;;;;;;;1999.90;999.90;;;29.00;72.20;;;;;;5048534;28;20029;-72
2023/06/10 02:14:18;;;;;;;1999.90;999.90;;;28.60;72.40;;;;;;5054817;28;21895;-71
2023/06/10 02:16:46;;;;;;;1999.90;999.90;;;28.70;71.50;;;;;;5044285;28;20056;-71
2023/06/10 02:19:14;;;;;;;1999.90;999.90;;;28.80;72.50;;;;;;5054919;28;20052;-71
2023/06/10 02:21:41;;;;;;;1999.90;999.90;;;28.70;71.70;;;;;;5045494;28;20021;-72
2023/06/10 02:24:09;;;;;;;1999.90;999.90;;;28.70;72.70;;;;;;5049734;28;20037;-72
2023/06/10 02:26:36;;;;;;;1999.90;999.90;;;28.80;71.80;;;;;;5052781;28;20020;-71
2023/06/10 02:29:03;;;;;;;1999.90;999.90;;;28.60;72.30;;;;;;5053294;28;20024;-70
2023/06/10 02:31:31;;;;;;;1999.90;999.90;;;28.60;72.70;;;;;;5058595;28;20050;-72
2023/06/10 02:33:58;;;;;;;1999.90;999.90;;;28.70;71.50;;;;;;5057362;28;20029;-75
2023/06/10 02:36:28;;;;;;;1999.90;999.90;;;28.40;71.30;;;;;;5051749;28;20104;-74
2023/06/10 02:38:55;;;;;;;1999.90;999.90;;;28.30;71.10;;;;;;5064410;28;20032;-72
2023/06/10 02:41:24;;;;;;;1999.90;999.90;;;28.20;71.20;;;;;;5056618;28;20041;-71
2023/06/10 02:43:52;;;;;;;1999.90;999.90;;;27.70;70.40;;;;;;5063698;28;20025;-71
2023/06/10 02:46:19;;;;;;;1999.90;999.90;;;27.50;71.40;;;;;;5059804;28;20040;-71
2023/06/10 02:48:49;;;;;;;1999.90;999.90;;;27.30;71.50;;;;;;5060402;28;20039;-73
2023/06/10 02:51:16;;;;;;;1999.90;999.90;;;27.10;71.60;;;;;;5061444;28;20090;-74
2023/06/10 02:53:43;;;;;;;1999.90;999.90;;;27.10;71.70;;;;;;5062279;28;20422;-72
2023/06/10 02:56:12;;;;;;;1999.90;999.90;;;26.80;71.20;;;;;;5057855;28;20125;-72
2023/06/10 02:58:39;;;;;;;1999.90;999.90;;;26.60;72.60;;;;;;5064820;28;20033;-72
2023/06/10 03:01:09;;;;;;;1999.90;999.90;;;26.20;72.70;;;;;;5060114;28;20131;-72
2023/06/10 03:03:40;;;;;;;1999.90;999.90;;;25.90;72.30;;;;;;5062419;28;20029;-70
2023/06/10 03:06:10;;;;;;;1999.90;999.90;;;25.70;72.70;;;;;;5057323;28;20029;-71
2023/06/10 03:08:37;;;;;;;1999.90;999.90;;;25.50;71.40;;;;;;5060689;28;20032;-70
2023/06/10 03:11:05;;;;;;;1999.90;999.90;;;25.10;73.10;;;;;;5059169;28;20090;-71
2023/06/10 03:13:33;;;;;;;1999.90;999.90;;;24.70;72.70;;;;;;5057520;28;20028;-72
2023/06/10 03:16:01;;;;;;;1999.90;999.90;;;24.50;72.70;;;;;;5057073;28;20052;-71
2023/06/10 03:18:29;;;;;;;1999.90;999.90;;;24.30;73.50;;;;;;5058884;28;20136;-71
2023/06/10 03:20:56;;;;;;;1999.90;999.90;;;24.10;73.20;;;;;;5060994;28;20035;-71
2023/06/10 03:23:24;;;;;;;1999.90;999.90;;;23.80;73.90;;;;;;5059082;28;20036;-71
2023/06/10 03:25:51;;;;;;;1999.90;999.90;;;23.50;73.40;;;;;;5059145;28;20052;-70
2023/06/10 03:28:18;;;;;;;1999.90;999.90;;;23.10;74.30;;;;;;5058981;28;20033;-70
2023/06/10 03:30:47;;;;;;;1999.90;999.90;;;22.70;74.40;;;;;;5053474;28;20032;-74
2023/06/10 03:33:14;;;;;;;1999.90;999.90;;;22.20;74.90;;;;;;5053772;28;20029;-70
2023/06/10 03:35:42;;;;;;;1999.90;999.90;;;21.70;74.50;;;;;;5050548;28;20036;-73
2023/06/10 03:38:09;;;;;;;1999.90;999.90;;;21.40;76.20;;;;;;5059904;28;20029;-74
2023/06/10 03:40:37;;;;;;;1999.90;999.90;;;21.20;77.20;;;;;;5054688;28;20051;-70
2023/06/10 03:43:04;;;;;;;1999.90;999.90;;;20.90;77.00;;;;;;5054435;28;20155;-72
2023/06/10 03:45:32;;;;;;;1999.90;999.90;;;20.60;77.10;;;;;;5048773;28;20044;-70
2023/06/10 03:47:59;;;;;;;1999.90;999.90;;;20.30;77.20;;;;;;5051766;28;20314;-70
2023/06/10 03:50:27;;;;;;;1999.90;999.90;;;20.00;77.10;;;;;;5062496;28;20443;-69
2023/06/10 03:52:54;;;;;;;1999.90;999.90;;;19.80;78.40;;;;;;5062647;28;20020;-70
2023/06/10 03:55:23;;;;;;;1999.90;999.90;;;19.70;79.30;;;;;;5068209;28;20016;-70
2023/06/10 03:57:51;;;;;;;1999.90;999.90;;;19.50;78.90;;;;;;5058241;28;20049;-70
2023/06/10 04:00:21;;;;;;;1999.90;999.90;;;19.30;79.30;;;;;;5062171;28;20028;-72
2023/06/10 04:02:51;;;;;;;1999.90;999.90;;;19.10;79.20;;;;;;5060099;28;20033;-72
2023/06/10 04:05:23;;;;;;;1999.90;999.90;;;19.00;80.50;;;;;;5063310;28;20043;-72
2023/06/10 04:07:51;;;;;;;1999.90;999.90;;;19.00;80.90;;;;;;5055812;28;20475;-69
2023/06/10 04:10:19;;;;;;;1999.90;999.90;;;18.90;80.90;;;;;;5053438;28;20082;-72
2023/06/10 04:12:46;;;;;;;1999.90;999.90;;;18.90;80.80;;;;;;5058689;28;20020;-72
2023/06/10 04:15:13;;;;;;;1999.90;999.90;;;18.80;81.00;;;;;;5061022;28;20109;-72
2023/06/10 04:17:40;;;;;;;1999.90;999.90;;;18.60;81.30;;;;;;5056269;28;20078;-72
2023/06/10 04:20:09;;;;;;;1999.90;999.90;;;18.60;83.30;;;;;;5060586;28;20032;-72
2023/06/10 04:22:36;;;;;;;1999.90;999.90;;;18.50;81.70;;;;;;5057512;28;20025;-70
2023/06/10 04:25:04;;;;;;;1999.90;999.90;;;18.40;81.30;;;;;;5058919;28;20044;-74
2023/06/10 04:27:31;;;;;;;1999.90;999.90;;;18.30;82.60;;;;;;5058445;28;20101;-71
2023/06/10 04:29:58;;;;;;;1999.90;999.90;;;18.10;82.30;;;;;;5052009;28;20029;-72
2023/06/10 04:32:26;;;;;;;1999.90;999.90;;;18.00;83.00;;;;;;5053351;28;20025;-71
2023/06/10 04:34:54;;;;;;;1999.90;999.90;;;17.90;84.30;;;;;;5054823;28;20047;-71
2023/06/10 04:37:21;;;;;;;1999.90;999.90;;;18.00;84.00;;;;;;5055840;28;20036;-70
2023/06/10 04:39:48;;;;;;;1999.90;999.90;;;17.90;84.00;;;;;;5057097;28;20020;-74
2023/06/10 04:42:16;;;;;;;1999.90;999.90;;;17.80;84.30;;;;;;5058596;28;20024;-73
2023/06/10 04:44:43;;;;;;;1999.90;999.90;;;17.80;84.20;;;;;;5058941;28;20155;-72
2023/06/10 04:47:10;;;;;;;1999.90;999.90;;;17.80;84.70;;;;;;5050608;28;20112;-72
2023/06/10 04:49:38;;;;;;;1999.90;999.90;;;17.80;84.90;;;;;;5056657;28;20490;-73
2023/06/10 04:52:05;;;;;;;1999.90;999.90;;;17.70;85.00;;;;;;5054237;28;20148;-75
2023/06/10 04:54:32;;;;;;;1999.90;999.90;;;17.60;84.20;;;;;;5060826;28;20036;-75
2023/06/10 04:57:03;;;;;;;1999.90;999.90;;;17.60;84.20;;;;;;5058451;28;20021;-75
2023/06/10 04:59:30;;;;;;;1999.90;999.90;;;17.60;83.90;;;;;;5060885;28;20036;-75
2023/06/10 05:01:58;;;;;;;1999.90;999.90;;;17.60;85.10;;;;;;5052556;28;20114;-72
2023/06/10 05:04:26;;;;;;;1999.90;999.90;;;17.50;84.40;;;;;;5057667;28;20123;-74
2023/06/10 05:06:53;;;;;;;1999.90;999.90;;;17.50;84.80;;;;;;5045174;28;20021;-70
2023/06/10 05:09:20;;;;;;;1999.90;999.90;;;17.40;84.00;;;;;;5048780;28;20474;-72
2023/06/10 05:11:48;;;;;;;1999.90;999.90;;;17.40;84.40;;;;;;5051300;28;20104;-76
2023/06/10 05:14:20;;;;;;;1999.90;999.90;;;17.40;85.40;;;;;;5061303;28;20024;-78
2023/06/10 05:16:49;;;;;;;1999.90;999.90;;;17.40;85.50;;;;;;5048763;28;20033;-74
2023/06/10 05:19:17;;;;;;;1999.90;999.90;;;17.40;85.50;;;;;;5061599;28;20021;-74
2023/06/10 05:21:45;;;;;;;1999.90;999.90;;;17.30;86.10;;;;;;5057250;28;20036;-73
2023/06/10 05:24:14;;;;;;;1999.90;999.90;;;17.30;85.70;;;;;;5053222;28;20491;-70
2023/06/10 05:26:41;;;;;;;1999.90;999.90;;;17.30;84.90;;;;;;5049521;28;20025;-71
2023/06/10 05:29:09;;;;;;;1999.90;999.90;;;17.20;84.80;;;;;;5056045;28;20115;-70
2023/06/10 05:31:36;;;;;;;1999.90;999.90;;;17.20;84.60;;;;;;5057621;28;20037;-72
2023/06/10 05:34:04;;;;;;;1999.90;999.90;;;17.10;85.60;;;;;;5061922;28;20494;-71
2023/06/10 05:36:32;;;;;;;1999.90;999.90;;;17.10;85.30;;;;;;5054940;28;20041;-73
2023/06/10 05:38:59;;;;;;;1999.90;999.90;;;17.00;84.80;;;;;;5064021;28;20483;-71
2023/06/10 05:41:26;;;;;;;1999.90;999.90;;;17.00;85.00;;;;;;5058163;28;20021;-71
2023/06/10 05:43:54;;;;;;;1999.90;999.90;;;16.90;85.20;;;;;;5052682;28;20031;-71
2023/06/10 05:46:22;;;;;;;1999.90;999.90;;;16.90;85.70;;;;;;5058075;28;20700;-72
2023/06/10 05:48:49;;;;;;;1999.90;999.90;;;16.90;85.20;;;;;;5055642;28;20021;-72
2023/06/10 05:51:16;;;;;;;1999.90;999.90;;;16.90;86.10;;;;;;5053994;28;20040;-72
2023/06/10 05:53:46;;;;;;;1999.90;999.90;;;16.90;86.10;;;;;;5054396;28;20128;-71
2023/06/10 05:56:14;;;;;;;1999.90;999.90;;;16.90;86.50;;;;;;5054657;28;20032;-73
2023/06/10 05:58:42;;;;;;;1999.90;999.90;;;16.80;86.50;;;;;;5057343;28;20029;-72
2023/06/10 06:01:09;;;;;;;1999.90;999.90;;;16.80;87.00;;;;;;5053147;28;20045;-71
2023/06/10 06:03:36;;;;;;;1999.90;999.90;;;16.80;87.30;;;;;;5056354;28;20537;-74
2023/06/10 06:06:04;;;;;;;1999.90;999.90;;;16.90;86.10;;;;;;5063388;28;20052;-71
2023/06/10 06:08:32;;;;;;;1999.90;999.90;;;16.90;87.60;;;;;;5059779;28;20479;-73
2023/06/10 06:11:01;;;;;;;1999.90;999.90;;;17.00;88.30;;;;;;5064208;28;20110;-74
2023/06/10 06:13:28;;;;;;;1999.90;999.90;;;17.10;87.60;;;;;;5060977;28;20031;-72
2023/06/10 06:15:55;;;;;;;1999.90;999.90;;;17.20;88.50;;;;;;5064087;28;20033;-74
2023/06/10 06:18:23;;;;;;;1999.90;999.90;;;17.20;89.40;;;;;;5060253;28;20055;-72
2023/06/10 06:20:51;;;;;;;1999.90;999.90;;;17.30;89.60;;;;;;5064306;28;20522;-73
2023/06/10 06:23:18;;;;;;;1999.90;999.90;;;17.30;89.80;;;;;;5051854;28;20033;-72
2023/06/10 06:25:45;;;;;;;1999.90;999.90;;;17.30;89.60;;;;;;5059090;28;20040;-72
2023/06/10 06:28:13;;;;;;;1999.90;999.90;;;17.20;89.20;;;;;;5061617;28;20470;-73
2023/06/10 06:30:40;;;;;;;1999.90;999.90;;;17.10;89.20;;;;;;5060809;28;20056;-73
2023/06/10 06:33:07;;;;;;;1999.90;999.90;;;17.00;89.10;;;;;;5060183;28;20546;-72
2023/06/10 06:35:35;;;;;;;1999.90;999.90;;;16.90;89.50;;;;;;5060132;28;20055;-72
2023/06/10 06:38:03;;;;;;;1999.90;999.90;;;16.80;89.20;;;;;;5052716;28;20593;-72
2023/06/10 06:40:31;;;;;;;1999.90;999.90;;;16.50;89.00;;;;;;5058457;28;20028;-73
2023/06/10 06:42:58;;;;;;;1999.90;999.90;;;16.40;88.70;;;;;;5058293;28;20874;-72
2023/06/10 06:45:25;;;;;;;1999.90;999.90;;;16.20;90.20;;;;;;5055669;28;20064;-73
2023/06/10 06:47:53;;;;;;;1999.90;999.90;;;16.00;90.00;;;;;;5056644;28;20024;-72
2023/06/10 06:50:20;;;;;;;1999.90;999.90;;;15.80;90.40;;;;;;5049822;28;20625;-72
2023/06/10 06:52:47;;;;;;;1999.90;999.90;;;15.70;90.30;;;;;;5049716;28;20021;-75
2023/06/10 06:55:15;;;;;;;1999.90;999.90;;;15.50;90.50;;;;;;5053879;28;20025;-74
2023/06/10 06:57:43;;;;;;;1999.90;999.90;;;15.40;91.10;;;;;;5054156;28;20379;-76
2023/06/10 07:00:11;;;;;;;1999.90;999.90;;;15.20;91.60;;;;;;5058588;28;20053;-74
2023/06/10 07:02:39;;;;;;;1999.90;999.90;;;15.10;91.90;;;;;;5056298;28;20075;-76
2023/06/10 07:05:07;;;;;;;1999.90;999.90;;;15.00;92.80;;;;;;5063997;28;20056;-74
2023/06/10 07:07:34;;;;;;;1999.90;999.90;;;14.80;93.10;;;;;;5060021;28;20025;-73
2023/06/10 07:10:01;;;;;;;1999.90;999.90;;;14.60;93.20;;;;;;5054419;28;20029;-74
2023/06/10 07:12:28;;;;;;;1999.90;999.90;;;14.50;93.10;;;;;;5055072;28;20037;-75
2023/06/10 07:14:56;;;;;;;1999.90;999.90;;;14.40;93.40;;;;;;5060693;28;20075;-74
2023/06/10 07:17:23;;;;;;;1999.90;999.90;;;14.20;93.80;;;;;;5059891;28;20415;-72
2023/06/10 07:19:51;;;;;;;1999.90;999.90;;;14.10;94.10;;;;;;5065907;28;20029;-75
2023/06/10 07:22:18;;;;;;;1999.90;999.90;;;14.00;94.70;;;;;;5063477;28;20111;-73
2023/06/10 07:24:45;;;;;;;1999.90;999.90;;;13.80;95.10;;;;;;5061018;28;20098;-75
2023/06/10 07:27:14;;;;;;;1999.90;999.90;;;13.70;94.90;;;;;;5059774;28;20024;-75
2023/06/10 07:29:41;;;;;;;1999.90;999.90;;;13.60;95.50;;;;;;5059910;28;20021;-74
2023/06/10 07:32:09;;;;;;;1999.90;999.90;;;13.60;95.90;;;;;;5061793;28;20021;-74
2023/06/10 07:34:36;;;;;;;1999.90;999.90;;;13.50;96.00;;;;;;5063143;28;20490;-72
2023/06/10 07:37:04;;;;;;;1999.90;999.90;;;13.40;96.20;;;;;;5057621;28;20086;-73
2023/06/10 07:39:31;;;;;;;1999.90;999.90;;;13.40;96.40;;;;;;5066333;28;20074;-74
2023/06/10 07:41:58;;;;;;;1999.90;999.90;;;13.30;96.90;;;;;;5055747;28;20079;-76
2023/06/10 07:44:26;;;;;;;1999.90;999.90;;;13.10;97.30;;;;;;5056233;28;20029;-76
2023/06/10 07:46:53;;;;;;;1999.90;999.90;;;13.00;97.80;;;;;;5055922;28;20020;-73
2023/06/10 07:49:20;;;;;;;1999.90;999.90;;;12.90;98.10;;;;;;5059015;28;20029;-73
2023/06/10 07:51:48;;;;;;;1999.90;999.90;;;12.80;98.30;;;;;;5054435;28;20035;-74
2023/06/10 07:54:15;;;;;;;1999.90;999.90;;;12.70;98.60;;;;;;5061179;28;20504;-75
2023/06/10 07:56:42;;;;;;;1999.90;999.90;;;12.60;98.80;;;;;;5058318;28;20035;-74
2023/06/10 07:59:10;;;;;;;1999.90;999.90;;;12.50;99.00;;;;;;5055889;28;20020;-74
2023/06/10 08:01:39;;;;;;;1999.90;999.90;;;12.40;99.20;;;;;;5051462;28;20080;-74
2023/06/10 08:04:07;;;;;;;1999.90;999.90;;;12.40;99.40;;;;;;5057762;28;20498;-75
2023/06/10 08:06:36;;;;;;;1999.90;999.90;;;12.30;99.80;;;;;;5058204;28;20021;-76
2023/06/10 08:09:04;;;;;;;1999.90;999.90;;;12.20;99.70;;;;;;5067554;28;20024;-78
2023/06/10 08:11:31;;;;;;;1999.90;999.90;;;12.20;99.80;;;;;;5057653;28;20029;-76
2023/06/10 08:13:59;;;;;;;1999.90;999.90;;;12.10;99.90;;;;;;5055197;28;20068;-75
2023/06/10 08:16:26;;;;;;;1999.90;999.90;;;12.10;99.90;;;;;;5052471;28;20068;-74
2023/06/10 08:18:53;;;;;;;1999.90;999.90;;;12.00;99.90;;;;;;5062836;28;20117;-73
2023/06/10 08:21:20;;;;;;;1999.90;999.90;;;11.90;99.90;;;;;;5053983;28;20365;-73
2023/06/10 08:23:48;;;;;;;1999.90;999.90;;;11.90;99.90;;;;;;5057896;28;20871;-72
2023/06/10 08:26:15;;;;;;;1999.90;999.90;;;11.80;99.90;;;;;;5056117;28;20065;-71
2023/06/10 08:28:43;;;;;;;1999.90;999.90;;;11.70;99.90;;;;;;5057596;28;20021;-75
2023/06/10 08:31:10;;;;;;;1999.90;999.90;;;11.70;99.90;;;;;;5051378;28;20035;-75
2023/06/10 08:33:37;;;;;;;1999.90;999.90;;;11.60;99.90;;;;;;5058407;28;20029;-73
2023/06/10 08:36:05;;;;;;;1999.90;999.90;;;11.60;99.90;;;;;;5058053;28;20033;-74
2023/06/10 08:38:33;;;;;;;1999.90;999.90;;;11.50;99.90;;;;;;5060905;28;20162;-74
2023/06/10 08:41:03;;;;;;;1999.90;999.90;;;11.40;99.90;;;;;;5065384;28;20167;-74
2023/06/10 08:43:41;;;;;;;1999.90;999.90;;;11.30;99.90;;;;;;5060994;28;20033;-73
2023/06/10 08:46:10;;;;;;;1999.90;999.90;;;11.30;99.90;;;;;;5055044;28;20079;-73
2023/06/10 08:48:44;;;;;;;1999.90;999.90;;;11.20;99.90;;;;;;5051753;28;20032;-74
2023/06/10 08:51:12;;;;;;;1999.90;999.90;;;11.10;99.90;;;;;;5057287;28;20028;-72
2023/06/10 08:53:50;;;;;;;1999.90;999.90;;;11.10;99.90;;;;;;5060664;28;20384;-74
2023/06/10 08:56:18;;;;;;;1999.90;999.90;;;11.00;99.90;;;;;;5054937;28;20380;-72
2023/06/10 08:58:46;;;;;;;1999.90;999.90;;;11.00;99.90;;;;;;5052557;28;20035;-73
2023/06/10 09:01:14;;;;;;;1999.90;999.90;;;11.00;99.90;;;;;;5058147;28;20124;-74
2023/06/10 09:03:43;;;;;;;1999.90;999.90;;;11.00;99.90;;;;;;5059967;28;20036;-73
2023/06/10 09:06:10;;;;;;;1999.90;999.90;;;11.00;99.90;;;;;;5055113;28;20047;-74
2023/06/10 09:08:41;;;;;;;1999.90;999.90;;;10.90;99.90;;;;;;5059538;28;20078;-72
2023/06/10 09:11:09;;;;;;;1999.90;999.90;;;10.90;99.90;;;;;;5056391;28;20032;-76
2023/06/10 09:13:36;;;;;;;1999.90;999.90;;;10.90;99.90;;;;;;5056824;28;20029;-73
2023/06/10 09:16:03;;;;;;;1999.90;999.90;;;10.90;99.90;;;;;;5064556;28;20033;-75
2023/06/10 09:18:31;;;;;;;1999.90;999.90;;;10.80;99.90;;;;;;5060194;28;20033;-74
2023/06/10 09:20:58;;;;;;;1999.90;999.90;;;10.80;99.90;;;;;;5048623;28;20083;-74
2023/06/10 09:23:27;;;;;;;1999.90;999.90;;;10.70;99.90;;;;;;5052496;28;20025;-72
2023/06/10 09:25:58;;;;;;;1999.90;999.90;;;10.70;99.90;;;;;;5054498;28;20029;-74
2023/06/10 09:28:26;;;;;;;1999.90;999.90;;;10.70;99.90;;;;;;5056240;28;20029;-74
2023/06/10 09:31:13;;;;;;;1999.90;999.90;;;10.60;99.90;;;;;;5062471;28;20376;-74
2023/06/10 09:33:41;;;;;;;1999.90;999.90;;;10.60;99.90;;;;;;5063049;28;20021;-74
2023/06/10 09:36:08;;;;;;;1999.90;999.90;;;10.50;99.90;;;;;;5052264;28;20050;-73
2023/06/10 09:38:37;;;;;;;1999.90;999.90;;;10.50;99.90;;;;;;5053360;28;20451;-75
2023/06/10 09:41:05;;;;;;;1999.90;999.90;;;10.50;99.90;;;;;;5053948;28;20025;-73
2023/06/10 09:43:44;;;;;;;1999.90;999.90;;;10.40;99.90;;;;;;5060368;28;20032;-74
2023/06/10 09:46:18;;;;;;;1999.90;999.90;;;10.40;99.90;;;;;;5052639;28;20028;-76
2023/06/10 09:48:47;;;;;;;1999.90;999.90;;;10.40;99.90;;;;;;5058499;28;20914;-79
2023/06/10 09:51:17;;;;;;;1999.90;999.90;;;10.40;99.90;;;;;;5055045;28;20029;-74
2023/06/10 09:53:48;;;;;;;1999.90;999.90;;;10.30;99.90;;;;;;5055439;28;20195;-73
2023/06/10 09:56:16;;;;;;;1999.90;999.90;;;10.30;99.90;;;;;;5060352;28;20037;-75
2023/06/10 09:58:45;;;;;;;1999.90;999.90;;;10.20;99.90;;;;;;5056777;28;20479;-74
2023/06/10 10:01:15;;;;;;;1999.90;999.90;;;10.10;99.90;;;;;;5054686;28;20053;-73
2023/06/10 10:03:50;;;;;;;1999.90;999.90;;;10.10;99.90;;;;;;5062693;28;20475;-77
2023/06/10 10:06:19;;;;;;;1999.90;999.90;;;10.00;99.90;;;;;;5052399;28;20369;-77
2023/06/10 10:08:49;;;;;;;1999.90;999.90;;;10.00;99.90;;;;;;5056377;28;20040;-77
2023/06/10 10:11:25;;;;;;;1999.90;999.90;;;10.00;99.90;;;;;;5050453;28;20064;-76
2023/06/10 10:13:54;;;;;;;1999.90;999.90;;;9.90;99.90;;;;;;5056068;28;20211;-76
2023/06/10 10:16:38;;;;;;;1999.90;999.90;;;9.90;99.90;;;;;;5049178;28;20028;-77
2023/06/10 10:19:16;;;;;;;1999.90;999.90;;;9.90;99.90;;;;;;5052122;28;20037;-76
2023/06/10 10:21:54;;;;;;;1999.90;999.90;;;9.80;99.90;;;;;;5051278;28;20521;-77
2023/06/10 10:24:47;;;;;;;1999.90;999.90;;;9.80;99.90;;;;;;5056881;28;20028;-74
2023/06/10 10:27:28;;;;;;;1999.90;999.90;;;9.70;99.90;;;;;;5066841;28;20032;-74
2023/06/10 10:29:58;;;;;;;1999.90;999.90;;;9.70;99.90;;;;;;5051642;28;20029;-74
2023/06/10 10:32:35;;;;;;;1999.90;999.90;;;9.60;99.90;;;;;;5047862;28;20021;-76
2023/06/10 10:35:07;;;;;;;1999.90;999.90;;;9.60;99.90;;;;;;5058128;28;20047;-73
2023/06/10 10:37:36;;;;;;;1999.90;999.90;;;9.60;99.90;;;;;;5052205;28;20025;-76
2023/06/10 10:40:04;;;;;;;1999.90;999.90;;;9.60;99.90;;;;;;5063499;28;20023;-73
2023/06/10 10:42:32;;;;;;;1999.90;999.90;;;9.60;99.90;;;;;;5051810;28;20134;-74
2023/06/10 10:45:00;;;;;;;1999.90;999.90;;;9.60;99.90;;;;;;5055494;28;20041;-75
2023/06/10 10:47:30;;;;;;;1999.90;999.90;;;9.60;99.90;;;;;;5047952;28;20021;-76
2023/06/10 10:49:59;;;;;;;1999.90;999.90;;;9.50;99.90;;;;;;5048324;28;20039;-75
2023/06/10 10:52:46;;;;;;;1999.90;999.90;;;9.50;99.90;;;;;;5054604;28;20024;-75
2023/06/10 10:55:14;;;;;;;1999.90;999.90;;;9.50;99.90;;;;;;5065915;28;20055;-75
2023/06/10 10:57:41;;;;;;;1999.90;999.90;;;9.50;99.90;;;;;;5059970;28;20025;-75
2023/06/10 11:00:11;;;;;;;1999.90;999.90;;;9.50;99.90;;;;;;5058061;28;20044;-73
2023/06/10 11:02:46;;;;;;;1999.90;999.90;;;9.50;99.90;;;;;;5055533;28;20135;-75
2023/06/10 11:05:17;;;;;;;1999.90;999.90;;;9.50;99.90;;;;;;5060971;28;20058;-76
2023/06/10 11:07:55;;;;;;;1999.90;999.90;;;9.40;99.90;;;;;;5057484;28;20081;-75
2023/06/10 11:10:39;;;;;;;1999.90;999.90;;;9.40;99.90;;;;;;5065896;28;20025;-71
2023/06/10 11:13:16;;;;;;;1999.90;999.90;;;9.30;99.90;;;;;;5063583;28;20491;-73
2023/06/10 11:15:50;;;;;;;1999.90;999.90;;;9.30;99.90;;;;;;5057735;28;20033;-73
2023/06/10 11:18:29;;;;;;;1999.90;999.90;;;9.20;99.90;;;;;;5064541;28;20032;-74
2023/06/10 11:21:04;;;;;;;1999.90;999.90;;;9.20;99.90;;;;;;5060011;28;20040;-74
2023/06/10 11:23:40;;;;;;;1999.90;999.90;;;9.10;99.90;;;;;;5063074;28;20529;-75
2023/06/10 11:26:31;;;;;;;1999.90;999.90;;;9.10;99.90;;;;;;5059707;28;20040;-74
2023/06/10 11:28:58;;;;;;;1999.90;999.90;;;9.00;99.90;;;;;;5058367;28;20532;-72
2023/06/10 11:31:27;;;;;;;1999.90;999.90;;;9.00;99.90;;;;;;5057786;28;20032;-76
2023/06/10 11:34:03;;;;;;;1999.90;999.90;;;8.90;99.90;;;;;;5061156;28;20024;-74
2023/06/10 11:36:31;;;;;;;1999.90;999.90;;;8.90;99.90;;;;;;5056555;28;20033;-74
2023/06/10 11:39:00;;;;;;;1999.90;999.90;;;8.80;99.90;;;;;;5057499;28;20541;-73
2023/06/10 11:41:30;;;;;;;1999.90;999.90;;;8.70;99.90;;;;;;5058033;28;20028;-74
2023/06/10 11:44:05;;;;;;;1999.90;999.90;;;8.70;99.90;;;;;;5061963;28;20040;-73
2023/06/10 11:46:33;;;;;;;1999.90;999.90;;;8.60;99.90;;;;;;5058584;28;20033;-77
2023/06/10 11:49:05;;;;;;;1999.90;999.90;;;8.60;99.90;;;;;;5067417;28;20109;-74
2023/06/10 11:51:48;;;;;;;1999.90;999.90;;;8.50;99.90;;;;;;5051971;28;20458;-74
2023/06/10 11:54:16;;;;;;;1999.90;999.90;;;8.50;99.90;;;;;;5047812;28;20143;-74
2023/06/10 11:56:44;;;;;;;1999.90;999.90;;;8.50;99.90;;;;;;5053698;28;20040;-73
2023/06/10 11:59:11;;;;;;;1999.90;999.90;;;8.50;99.90;;;;;;5054024;28;20128;-72
2023/06/10 12:01:44;;;;;;;1999.90;999.90;;;8.40;99.90;;;;;;5050346;28;20091;-75
2023/06/10 12:04:15;;;;;;;1999.90;999.90;;;8.50;99.90;;;;;;5053773;28;20044;-74
2023/06/10 12:06:53;;;;;;;1999.90;999.90;;;8.40;99.90;;;;;;5053081;28;20029;-75
2023/06/10 12:09:28;;;;;;;1999.90;999.90;;;8.40;99.90;;;;;;5055837;28;20027;-74
2023/06/10 12:12:03;;;;;;;1999.90;999.90;;;8.40;99.90;;;;;;5053123;28;20028;-73